sensor_id;sensor_type;location;lat;lon;timestamp;temperature;humidity
19058;DHT22;9662;53.612;9.914;2022-12-29T00:00:13;9.10;99.90
19058;DHT22;9662;53.612;9.914;2022-12-29T00:02:40;9.00;99.90
19058;DHT22;9662;53.612;9.914;2022-12-29T00:05:07;9.00;99.90
19058;DHT22;9662;53.612;9.914;2022-12-29T00:07:34;9.10;99.90
19058;DHT22;9662;53.612;9.914;2022-12-29T00:10:01;9.10;99.90
19058;DHT22;9662;53.612;9.914;2022-12-29T00:12:28;9.20;99.90
19058;DHT22;9662;53.612;9.914;2022-12-29T00:15:16;9.10;99.90
19058;DHT22;9662;53.612;9.914;2022-12-29T00:18:00;9.20;99.90
19058;DHT22;9662;53.612;9.914;2022-12-29T00:20:27;9.20;99.90
19058;DHT22;9662;53.612;9.914;2022-12-29T00:23:11;9.40;99.90
19058;DHT22;9662;53.612;9.914;2022-12-29T00:25:55;9.30;99.90
19058;DHT22;9662;53.612;9.914;2022-12-29T00:28:39;9.20;99.90
19058;DHT22;9662;53.612;9.914;2022-12-29T00:31:25;9.30;99.90
19058;DHT22;9662;53.612;9.914;2022-12-29T00:34:10;9.30;99.90
19058;DHT22;9662;53.612;9.914;2022-12-29T00:36:55;9.30;99.90
19058;DHT22;9662;53.612;9.914;2022-12-29T00:39:22;9.40;99.90
19058;DHT22;9662;53.612;9.914;2022-12-29T00:42:07;9.40;99.90
19058;DHT22;9662;53.612;9.914;2022-12-29T00:44:52;9.40;99.90
19058;DHT22;9662;53.612;9.914;2022-12-29T00:47:20;9.30;99.90
19058;DHT22;9662;53.612;9.914;2022-12-29T00:49:47;9.40;99.90
19058;DHT22;9662;53.612;9.914;2022-12-29T00:52:13;9.50;99.90
19058;DHT22;9662;53.612;9.914;2022-12-29T00:54:41;10.80;99.90
19058;DHT22;9662;53.612;9.914;2022-12-29T00:57:10;9.50;99.90
19058;DHT22;9662;53.612;9.914;2022-12-29T00:59:38;9.50;99.90
19058;DHT22;9662;53.612;9.914;2022-12-29T01:02:06;9.50;99.90
19058;DHT22;9662;53.612;9.914;2022-12-29T01:04:35;9.50;99.90
19058;DHT22;9662;53.612;9.914;2022-12-29T01:07:02;9.50;99.90
19058;DHT22;9662;53.612;9.914;2022-12-29T01:09:28;9.50;99.90
19058;DHT22;9662;53.612;9.914;2022-12-29T01:12:13;9.50;99.90
19058;DHT22;9662;53.612;9.914;2022-12-29T01:14:40;9.60;99.90
19058;DHT22;9662;53.612;9.914;2022-12-29T01:17:07;9.50;99.90
19058;DHT22;9662;53.612;9.914;2022-12-29T01:19:35;9.50;99.90
19058;DHT22;9662;53.612;9.914;2022-12-29T01:22:02;9.60;99.90
19058;DHT22;9662;53.612;9.914;2022-12-29T01:24:28;9.60;99.90
19058;DHT22;9662;53.612;9.914;2022-12-29T01:26:55;9.60;99.90
19058;DHT22;9662;53.612;9.914;2022-12-29T01:29:22;10.00;99.90
19058;DHT22;9662;53.612;9.914;2022-12-29T01:31:49;9.70;99.90
19058;DHT22;9662;53.612;9.914;2022-12-29T01:34:16;9.60;99.90
19058;DHT22;9662;53.612;9.914;2022-12-29T01:36:44;9.60;99.90
19058;DHT22;9662;53.612;9.914;2022-12-29T01:39:11;9.70;99.90
19058;DHT22;9662;53.612;9.914;2022-12-29T01:41:38;9.80;99.90
19058;DHT22;9662;53.612;9.914;2022-12-29T01:47:06;9.70;99.90
19058;DHT22;9662;53.612;9.914;2022-12-29T01:49:34;9.80;99.90
19058;DHT22;9662;53.612;9.914;2022-12-29T01:52:05;9.80;99.90
19058;DHT22;9662;53.612;9.914;2022-12-29T01:54:37;9.80;99.90
19058;DHT22;9662;53.612;9.914;2022-12-29T01:57:08;9.90;99.90
19058;DHT22;9662;53.612;9.914;2022-12-29T01:59:39;9.70;99.90
19058;DHT22;9662;53.612;9.914;2022-12-29T02:02:07;9.80;99.90
19058;DHT22;9662;53.612;9.914;2022-12-29T02:04:35;9.80;99.90
19058;DHT22;9662;53.612;9.914;2022-12-29T02:07:10;9.80;99.90
19058;DHT22;9662;53.612;9.914;2022-12-29T02:09:38;9.60;99.90
19058;DHT22;9662;53.612;9.914;2022-12-29T02:12:05;9.80;99.90
19058;DHT22;9662;53.612;9.914;2022-12-29T02:14:32;9.80;99.90
19058;DHT22;9662;53.612;9.914;2022-12-29T02:17:07;9.80;99.90
19058;DHT22;9662;53.612;9.914;2022-12-29T02:20:16;9.60;99.90
19058;DHT22;9662;53.612;9.914;2022-12-29T02:22:56;9.90;99.90
19058;DHT22;9662;53.612;9.914;2022-12-29T02:25:52;9.80;99.90
19058;DHT22;9662;53.612;9.914;2022-12-29T02:28:59;9.80;99.90
19058;DHT22;9662;53.612;9.914;2022-12-29T02:31:31;9.80;99.90
19058;DHT22;9662;53.612;9.914;2022-12-29T02:34:09;9.90;99.90
19058;DHT22;9662;53.612;9.914;2022-12-29T02:36:45;9.90;99.90
19058;DHT22;9662;53.612;9.914;2022-12-29T02:39:20;9.90;99.90
19058;DHT22;9662;53.612;9.914;2022-12-29T02:41:56;9.90;99.90
19058;DHT22;9662;53.612;9.914;2022-12-29T02:44:27;9.90;99.90
19058;DHT22;9662;53.612;9.914;2022-12-29T02:47:01;9.90;99.90
19058;DHT22;9662;53.612;9.914;2022-12-29T02:49:36;9.90;99.90
19058;DHT22;9662;53.612;9.914;2022-12-29T02:52:06;9.90;99.90
19058;DHT22;9662;53.612;9.914;2022-12-29T02:54:36;9.90;99.90
19058;DHT22;9662;53.612;9.914;2022-12-29T02:57:12;10.00;99.90
19058;DHT22;9662;53.612;9.914;2022-12-29T02:59:41;10.00;99.90
19058;DHT22;9662;53.612;9.914;2022-12-29T03:02:26;10.10;99.90
19058;DHT22;9662;53.612;9.914;2022-12-29T03:05:07;10.10;99.90
19058;DHT22;9662;53.612;9.914;2022-12-29T03:07:43;10.10;99.90
19058;DHT22;9662;53.612;9.914;2022-12-29T03:10:18;10.00;99.90
19058;DHT22;9662;53.612;9.914;2022-12-29T03:12:48;10.10;99.90
19058;DHT22;9662;53.612;9.914;2022-12-29T03:15:38;10.10;99.90
19058;DHT22;9662;53.612;9.914;2022-12-29T03:18:36;10.20;99.90
19058;DHT22;9662;53.612;9.914;2022-12-29T03:21:08;10.20;99.90
19058;DHT22;9662;53.612;9.914;2022-12-29T03:23:35;10.30;99.90
19058;DHT22;9662;53.612;9.914;2022-12-29T03:26:06;10.10;99.90
19058;DHT22;9662;53.612;9.914;2022-12-29T03:28:38;10.20;99.90
19058;DHT22;9662;53.612;9.914;2022-12-29T03:31:07;10.20;99.90
19058;DHT22;9662;53.612;9.914;2022-12-29T03:33:37;10.20;99.90
19058;DHT22;9662;53.612;9.914;2022-12-29T03:36:08;10.20;99.90
19058;DHT22;9662;53.612;9.914;2022-12-29T03:38:41;10.20;99.90
19058;DHT22;9662;53.612;9.914;2022-12-29T03:41:12;10.20;99.90
19058;DHT22;9662;53.612;9.914;2022-12-29T03:43:41;10.20;99.90
19058;DHT22;9662;53.612;9.914;2022-12-29T03:46:07;10.20;99.90
19058;DHT22;9662;53.612;9.914;2022-12-29T03:48:36;10.20;99.90
19058;DHT22;9662;53.612;9.914;2022-12-29T03:51:03;10.30;99.90
19058;DHT22;9662;53.612;9.914;2022-12-29T03:53:29;10.30;99.90
19058;DHT22;9662;53.612;9.914;2022-12-29T03:55:56;10.20;99.90
19058;DHT22;9662;53.612;9.914;2022-12-29T03:58:23;10.30;99.90
19058;DHT22;9662;53.612;9.914;2022-12-29T04:00:50;10.60;99.90
19058;DHT22;9662;53.612;9.914;2022-12-29T04:03:16;9.80;99.90
19058;DHT22;9662;53.612;9.914;2022-12-29T04:05:44;10.30;99.90
19058;DHT22;9662;53.612;9.914;2022-12-29T04:08:11;10.20;99.90
19058;DHT22;9662;53.612;9.914;2022-12-29T04:10:38;10.20;99.90
19058;DHT22;9662;53.612;9.914;2022-12-29T04:13:05;10.30;99.90
19058;DHT22;9662;53.612;9.914;2022-12-29T04:15:32;10.30;99.90
19058;DHT22;9662;53.612;9.914;2022-12-29T04:17:58;10.30;99.90
19058;DHT22;9662;53.612;9.914;2022-12-29T04:20:25;10.30;99.90
19058;DHT22;9662;53.612;9.914;2022-12-29T04:23:11;10.30;99.90
19058;DHT22;9662;53.612;9.914;2022-12-29T04:25:37;10.20;99.90
19058;DHT22;9662;53.612;9.914;2022-12-29T04:28:04;10.20;99.90
19058;DHT22;9662;53.612;9.914;2022-12-29T04:30:33;10.20;99.90
19058;DHT22;9662;53.612;9.914;2022-12-29T04:33:00;10.20;99.90
19058;DHT22;9662;53.612;9.914;2022-12-29T04:35:26;10.30;99.90
19058;DHT22;9662;53.612;9.914;2022-12-29T04:37:53;10.30;99.90
19058;DHT22;9662;53.612;9.914;2022-12-29T04:40:21;10.20;99.90
19058;DHT22;9662;53.612;9.914;2022-12-29T04:42:49;10.30;99.90
19058;DHT22;9662;53.612;9.914;2022-12-29T04:45:16;10.40;99.90
19058;DHT22;9662;53.612;9.914;2022-12-29T04:47:43;10.50;99.90
19058;DHT22;9662;53.612;9.914;2022-12-29T04:50:10;10.40;99.90
19058;DHT22;9662;53.612;9.914;2022-12-29T04:52:37;10.50;99.90
19058;DHT22;9662;53.612;9.914;2022-12-29T04:55:04;10.50;99.90
19058;DHT22;9662;53.612;9.914;2022-12-29T04:57:33;10.50;99.90
19058;DHT22;9662;53.612;9.914;2022-12-29T05:00:00;10.70;99.90
19058;DHT22;9662;53.612;9.914;2022-12-29T05:02:27;10.40;99.90
19058;DHT22;9662;53.612;9.914;2022-12-29T05:04:53;10.30;99.90
19058;DHT22;9662;53.612;9.914;2022-12-29T05:07:20;10.30;99.90
19058;DHT22;9662;53.612;9.914;2022-12-29T05:09:47;10.50;99.90
19058;DHT22;9662;53.612;9.914;2022-12-29T05:12:14;10.50;99.90
19058;DHT22;9662;53.612;9.914;2022-12-29T05:14:42;10.50;99.90
19058;DHT22;9662;53.612;9.914;2022-12-29T05:17:09;10.50;99.90
19058;DHT22;9662;53.612;9.914;2022-12-29T05:19:36;10.50;99.90
19058;DHT22;9662;53.612;9.914;2022-12-29T05:22:03;10.50;99.90
19058;DHT22;9662;53.612;9.914;2022-12-29T05:24:31;10.40;99.90
19058;DHT22;9662;53.612;9.914;2022-12-29T05:26:57;10.40;99.90
19058;DHT22;9662;53.612;9.914;2022-12-29T05:29:24;10.80;99.90
19058;DHT22;9662;53.612;9.914;2022-12-29T05:31:52;10.50;99.90
19058;DHT22;9662;53.612;9.914;2022-12-29T05:34:19;10.60;99.90
19058;DHT22;9662;53.612;9.914;2022-12-29T05:36:46;10.60;99.90
19058;DHT22;9662;53.612;9.914;2022-12-29T05:39:12;10.60;99.90
19058;DHT22;9662;53.612;9.914;2022-12-29T05:41:39;10.60;99.90
19058;DHT22;9662;53.612;9.914;2022-12-29T05:44:06;10.60;99.90
19058;DHT22;9662;53.612;9.914;2022-12-29T05:46:33;10.60;99.90
19058;DHT22;9662;53.612;9.914;2022-12-29T05:49:01;10.70;99.90
19058;DHT22;9662;53.612;9.914;2022-12-29T05:51:28;10.70;99.90
19058;DHT22;9662;53.612;9.914;2022-12-29T05:53:55;10.60;99.90
19058;DHT22;9662;53.612;9.914;2022-12-29T05:56:21;10.60;99.90
19058;DHT22;9662;53.612;9.914;2022-12-29T05:58:48;10.70;99.90
19058;DHT22;9662;53.612;9.914;2022-12-29T06:01:15;11.30;99.90
19058;DHT22;9662;53.612;9.914;2022-12-29T06:03:42;10.60;99.90
19058;DHT22;9662;53.612;9.914;2022-12-29T06:06:10;10.50;99.90
19058;DHT22;9662;53.612;9.914;2022-12-29T06:08:37;10.50;99.90
19058;DHT22;9662;53.612;9.914;2022-12-29T06:11:04;10.50;99.90
19058;DHT22;9662;53.612;9.914;2022-12-29T06:13:31;10.50;99.90
19058;DHT22;9662;53.612;9.914;2022-12-29T06:15:58;10.50;99.90
19058;DHT22;9662;53.612;9.914;2022-12-29T06:18:25;10.50;99.90
19058;DHT22;9662;53.612;9.914;2022-12-29T06:20:52;10.60;99.90
19058;DHT22;9662;53.612;9.914;2022-12-29T06:23:20;10.60;99.90
19058;DHT22;9662;53.612;9.914;2022-12-29T06:25:47;10.60;99.90
19058;DHT22;9662;53.612;9.914;2022-12-29T06:28:14;10.60;99.90
19058;DHT22;9662;53.612;9.914;2022-12-29T06:30:43;10.60;99.90
19058;DHT22;9662;53.612;9.914;2022-12-29T06:33:11;10.40;99.90
19058;DHT22;9662;53.612;9.914;2022-12-29T06:35:38;10.60;99.90
19058;DHT22;9662;53.612;9.914;2022-12-29T06:38:04;10.50;99.90
19058;DHT22;9662;53.612;9.914;2022-12-29T06:40:33;10.40;99.90
19058;DHT22;9662;53.612;9.914;2022-12-29T06:43:00;10.40;99.90
19058;DHT22;9662;53.612;9.914;2022-12-29T06:45:27;10.40;99.90
19058;DHT22;9662;53.612;9.914;2022-12-29T06:47:53;10.40;99.90
19058;DHT22;9662;53.612;9.914;2022-12-29T06:50:20;10.40;99.90
19058;DHT22;9662;53.612;9.914;2022-12-29T06:52:47;10.40;99.90
19058;DHT22;9662;53.612;9.914;2022-12-29T06:55:14;10.40;99.90
19058;DHT22;9662;53.612;9.914;2022-12-29T06:57:43;10.40;99.90
19058;DHT22;9662;53.612;9.914;2022-12-29T07:00:10;10.40;99.90
19058;DHT22;9662;53.612;9.914;2022-12-29T07:02:37;10.40;99.90
19058;DHT22;9662;53.612;9.914;2022-12-29T07:05:04;10.30;99.90
19058;DHT22;9662;53.612;9.914;2022-12-29T07:07:32;10.30;99.90
19058;DHT22;9662;53.612;9.914;2022-12-29T07:09:59;10.20;99.90
19058;DHT22;9662;53.612;9.914;2022-12-29T07:12:26;10.10;99.90
19058;DHT22;9662;53.612;9.914;2022-12-29T07:14:54;10.10;99.90
19058;DHT22;9662;53.612;9.914;2022-12-29T07:17:21;10.20;99.90
19058;DHT22;9662;53.612;9.914;2022-12-29T07:19:48;10.20;99.90
19058;DHT22;9662;53.612;9.914;2022-12-29T07:22:14;10.20;99.90
19058;DHT22;9662;53.612;9.914;2022-12-29T07:24:41;10.20;99.90
19058;DHT22;9662;53.612;9.914;2022-12-29T07:27:08;10.10;99.90
19058;DHT22;9662;53.612;9.914;2022-12-29T07:29:36;10.10;99.90
19058;DHT22;9662;53.612;9.914;2022-12-29T07:32:05;9.90;99.90
19058;DHT22;9662;53.612;9.914;2022-12-29T07:34:31;10.20;99.90
19058;DHT22;9662;53.612;9.914;2022-12-29T07:36:58;10.30;99.90
19058;DHT22;9662;53.612;9.914;2022-12-29T07:39:25;10.20;99.90
19058;DHT22;9662;53.612;9.914;2022-12-29T07:41:52;10.20;99.90
19058;DHT22;9662;53.612;9.914;2022-12-29T07:44:19;10.20;99.90
19058;DHT22;9662;53.612;9.914;2022-12-29T07:46:45;10.30;99.90
19058;DHT22;9662;53.612;9.914;2022-12-29T07:49:14;10.40;99.90
19058;DHT22;9662;53.612;9.914;2022-12-29T07:51:41;10.40;99.90
19058;DHT22;9662;53.612;9.914;2022-12-29T07:54:08;10.30;99.90
19058;DHT22;9662;53.612;9.914;2022-12-29T07:56:35;10.30;99.90
19058;DHT22;9662;53.612;9.914;2022-12-29T07:59:02;10.20;99.90
19058;DHT22;9662;53.612;9.914;2022-12-29T08:01:29;10.10;99.90
19058;DHT22;9662;53.612;9.914;2022-12-29T08:03:56;10.30;99.90
19058;DHT22;9662;53.612;9.914;2022-12-29T08:06:24;10.20;99.90
19058;DHT22;9662;53.612;9.914;2022-12-29T08:08:51;10.20;99.90
19058;DHT22;9662;53.612;9.914;2022-12-29T08:11:18;10.10;99.90
19058;DHT22;9662;53.612;9.914;2022-12-29T08:13:45;10.30;99.90
19058;DHT22;9662;53.612;9.914;2022-12-29T08:16:12;10.20;99.90
19058;DHT22;9662;53.612;9.914;2022-12-29T08:18:38;10.30;99.90
19058;DHT22;9662;53.612;9.914;2022-12-29T08:21:05;10.30;99.90
19058;DHT22;9662;53.612;9.914;2022-12-29T08:23:34;10.20;99.90
19058;DHT22;9662;53.612;9.914;2022-12-29T08:26:03;10.10;99.90
19058;DHT22;9662;53.612;9.914;2022-12-29T08:28:31;10.10;99.90
19058;DHT22;9662;53.612;9.914;2022-12-29T08:30:59;10.10;99.90
19058;DHT22;9662;53.612;9.914;2022-12-29T08:33:26;10.10;99.90
19058;DHT22;9662;53.612;9.914;2022-12-29T08:35:59;10.10;99.90
19058;DHT22;9662;53.612;9.914;2022-12-29T08:38:27;10.30;99.90
19058;DHT22;9662;53.612;9.914;2022-12-29T08:40:55;10.40;99.90
19058;DHT22;9662;53.612;9.914;2022-12-29T08:43:22;10.40;99.90
19058;DHT22;9662;53.612;9.914;2022-12-29T08:45:49;10.50;99.90
19058;DHT22;9662;53.612;9.914;2022-12-29T08:48:16;10.60;99.90
19058;DHT22;9662;53.612;9.914;2022-12-29T08:50:45;10.60;99.90
19058;DHT22;9662;53.612;9.914;2022-12-29T08:53:12;10.70;99.90
19058;DHT22;9662;53.612;9.914;2022-12-29T08:55:39;10.80;99.90
19058;DHT22;9662;53.612;9.914;2022-12-29T08:58:07;10.80;99.90
19058;DHT22;9662;53.612;9.914;2022-12-29T09:00:34;10.80;99.90
19058;DHT22;9662;53.612;9.914;2022-12-29T09:03:01;10.90;99.90
19058;DHT22;9662;53.612;9.914;2022-12-29T09:05:28;11.00;99.90
19058;DHT22;9662;53.612;9.914;2022-12-29T09:07:55;11.10;99.90
19058;DHT22;9662;53.612;9.914;2022-12-29T09:10:21;11.20;99.90
19058;DHT22;9662;53.612;9.914;2022-12-29T09:12:49;11.20;99.90
19058;DHT22;9662;53.612;9.914;2022-12-29T09:15:17;11.30;99.90
19058;DHT22;9662;53.612;9.914;2022-12-29T09:17:44;11.20;99.90
19058;DHT22;9662;53.612;9.914;2022-12-29T09:20:11;11.20;99.90
19058;DHT22;9662;53.612;9.914;2022-12-29T09:22:39;11.20;99.90
19058;DHT22;9662;53.612;9.914;2022-12-29T09:25:06;11.20;99.90
19058;DHT22;9662;53.612;9.914;2022-12-29T09:27:34;11.20;99.90
19058;DHT22;9662;53.612;9.914;2022-12-29T09:30:03;11.10;99.90
19058;DHT22;9662;53.612;9.914;2022-12-29T09:32:32;11.00;99.90
19058;DHT22;9662;53.612;9.914;2022-12-29T09:34:59;10.90;99.90
19058;DHT22;9662;53.612;9.914;2022-12-29T09:37:26;10.70;99.90
19058;DHT22;9662;53.612;9.914;2022-12-29T09:39:53;10.80;99.90
19058;DHT22;9662;53.612;9.914;2022-12-29T09:42:24;11.60;99.90
19058;DHT22;9662;53.612;9.914;2022-12-29T09:45:03;11.20;99.90
19058;DHT22;9662;53.612;9.914;2022-12-29T09:47:32;11.20;99.90
19058;DHT22;9662;53.612;9.914;2022-12-29T09:50:02;11.30;99.90
19058;DHT22;9662;53.612;9.914;2022-12-29T09:52:32;11.30;99.90
19058;DHT22;9662;53.612;9.914;2022-12-29T09:55:04;11.30;99.90
19058;DHT22;9662;53.612;9.914;2022-12-29T09:57:36;11.40;99.90
19058;DHT22;9662;53.612;9.914;2022-12-29T10:00:10;11.60;99.90
19058;DHT22;9662;53.612;9.914;2022-12-29T10:02:41;11.60;99.90
19058;DHT22;9662;53.612;9.914;2022-12-29T10:05:27;11.60;99.90
19058;DHT22;9662;53.612;9.914;2022-12-29T10:08:07;11.60;99.90
19058;DHT22;9662;53.612;9.914;2022-12-29T10:10:43;11.60;99.90
19058;DHT22;9662;53.612;9.914;2022-12-29T10:13:28;11.60;99.90
19058;DHT22;9662;53.612;9.914;2022-12-29T10:16:03;11.60;99.90
19058;DHT22;9662;53.612;9.914;2022-12-29T10:18:47;11.50;99.90
19058;DHT22;9662;53.612;9.914;2022-12-29T10:21:24;11.40;99.90
19058;DHT22;9662;53.612;9.914;2022-12-29T10:23:55;11.30;99.90
19058;DHT22;9662;53.612;9.914;2022-12-29T10:26:26;11.30;99.90
19058;DHT22;9662;53.612;9.914;2022-12-29T10:28:57;11.10;99.90
19058;DHT22;9662;53.612;9.914;2022-12-29T10:31:28;11.00;99.90
19058;DHT22;9662;53.612;9.914;2022-12-29T10:34:03;11.00;99.90
19058;DHT22;9662;53.612;9.914;2022-12-29T10:36:42;10.90;99.90
19058;DHT22;9662;53.612;9.914;2022-12-29T10:39:30;10.80;99.90
19058;DHT22;9662;53.612;9.914;2022-12-29T10:42:19;11.10;99.90
19058;DHT22;9662;53.612;9.914;2022-12-29T10:45:07;10.80;99.90
19058;DHT22;9662;53.612;9.914;2022-12-29T10:47:51;10.90;99.90
19058;DHT22;9662;53.612;9.914;2022-12-29T10:50:57;10.90;99.90
19058;DHT22;9662;53.612;9.914;2022-12-29T10:53:53;11.00;99.90
19058;DHT22;9662;53.612;9.914;2022-12-29T10:56:29;10.90;99.90
19058;DHT22;9662;53.612;9.914;2022-12-29T10:59:01;10.80;99.90
19058;DHT22;9662;53.612;9.914;2022-12-29T11:01:37;10.90;99.90
19058;DHT22;9662;53.612;9.914;2022-12-29T11:04:21;10.90;99.90
19058;DHT22;9662;53.612;9.914;2022-12-29T11:06:53;10.90;99.90
19058;DHT22;9662;53.612;9.914;2022-12-29T11:09:26;10.80;99.90
19058;DHT22;9662;53.612;9.914;2022-12-29T11:11:53;10.80;99.90
19058;DHT22;9662;53.612;9.914;2022-12-29T11:14:27;10.70;99.90
19058;DHT22;9662;53.612;9.914;2022-12-29T11:16:57;10.60;99.90
19058;DHT22;9662;53.612;9.914;2022-12-29T11:19:26;11.00;99.90
19058;DHT22;9662;53.612;9.914;2022-12-29T11:21:55;11.00;99.90
19058;DHT22;9662;53.612;9.914;2022-12-29T11:24:43;11.20;99.90
19058;DHT22;9662;53.612;9.914;2022-12-29T11:27:15;11.30;99.90
19058;DHT22;9662;53.612;9.914;2022-12-29T11:29:43;11.20;99.90
19058;DHT22;9662;53.612;9.914;2022-12-29T11:32:12;12.00;99.90
19058;DHT22;9662;53.612;9.914;2022-12-29T11:34:39;11.10;99.90
19058;DHT22;9662;53.612;9.914;2022-12-29T11:37:12;11.20;99.90
19058;DHT22;9662;53.612;9.914;2022-12-29T11:39:42;11.30;99.90
19058;DHT22;9662;53.612;9.914;2022-12-29T11:42:14;11.40;99.90
19058;DHT22;9662;53.612;9.914;2022-12-29T11:44:44;10.70;99.90
19058;DHT22;9662;53.612;9.914;2022-12-29T11:47:20;11.30;99.90
19058;DHT22;9662;53.612;9.914;2022-12-29T11:49:50;11.60;99.90
19058;DHT22;9662;53.612;9.914;2022-12-29T11:52:22;11.20;99.90
19058;DHT22;9662;53.612;9.914;2022-12-29T11:54:50;11.40;99.90
19058;DHT22;9662;53.612;9.914;2022-12-29T11:57:18;11.40;99.90
19058;DHT22;9662;53.612;9.914;2022-12-29T11:59:50;11.50;99.90
19058;DHT22;9662;53.612;9.914;2022-12-29T12:02:40;11.60;99.90
19058;DHT22;9662;53.612;9.914;2022-12-29T12:05:18;11.60;99.90
19058;DHT22;9662;53.612;9.914;2022-12-29T12:07:51;11.60;99.90
19058;DHT22;9662;53.612;9.914;2022-12-29T12:10:26;11.60;99.90
19058;DHT22;9662;53.612;9.914;2022-12-29T12:13:02;11.60;99.90
19058;DHT22;9662;53.612;9.914;2022-12-29T12:15:34;11.60;99.90
19058;DHT22;9662;53.612;9.914;2022-12-29T12:18:08;12.20;99.90
19058;DHT22;9662;53.612;9.914;2022-12-29T12:20:42;12.30;99.90
19058;DHT22;9662;53.612;9.914;2022-12-29T12:23:22;11.00;99.90
19058;DHT22;9662;53.612;9.914;2022-12-29T12:25:57;11.50;99.90
19058;DHT22;9662;53.612;9.914;2022-12-29T12:28:33;11.50;99.90
19058;DHT22;9662;53.612;9.914;2022-12-29T12:31:02;11.50;99.90
19058;DHT22;9662;53.612;9.914;2022-12-29T12:33:33;11.60;99.90
19058;DHT22;9662;53.612;9.914;2022-12-29T12:36:14;11.50;99.90
19058;DHT22;9662;53.612;9.914;2022-12-29T12:38:50;12.10;99.90
19058;DHT22;9662;53.612;9.914;2022-12-29T12:41:27;11.60;99.90
19058;DHT22;9662;53.612;9.914;2022-12-29T12:44:02;11.60;99.90
19058;DHT22;9662;53.612;9.914;2022-12-29T12:46:50;11.50;99.90
19058;DHT22;9662;53.612;9.914;2022-12-29T12:49:53;11.60;99.90
19058;DHT22;9662;53.612;9.914;2022-12-29T12:52:29;11.70;99.90
19058;DHT22;9662;53.612;9.914;2022-12-29T12:55:26;11.60;99.90
19058;DHT22;9662;53.612;9.914;2022-12-29T12:58:03;11.60;99.90
19058;DHT22;9662;53.612;9.914;2022-12-29T13:00:36;11.50;99.90
19058;DHT22;9662;53.612;9.914;2022-12-29T13:03:10;11.80;99.90
19058;DHT22;9662;53.612;9.914;2022-12-29T13:05:50;11.90;99.90
19058;DHT22;9662;53.612;9.914;2022-12-29T13:08:41;11.80;99.90
19058;DHT22;9662;53.612;9.914;2022-12-29T14:12:22;9.00;99.90
19058;DHT22;9662;53.612;9.914;2022-12-29T14:18:57;8.70;99.90
19058;DHT22;9662;53.612;9.914;2022-12-29T14:21:37;8.70;99.90
19058;DHT22;9662;53.612;9.914;2022-12-29T14:24:43;9.20;99.90
19058;DHT22;9662;53.612;9.914;2022-12-29T14:27:51;8.80;99.90
19058;DHT22;9662;53.612;9.914;2022-12-29T14:33:27;8.80;99.90
19058;DHT22;9662;53.612;9.914;2022-12-29T14:35:54;8.80;99.90
19058;DHT22;9662;53.612;9.914;2022-12-29T14:38:29;8.80;99.90
19058;DHT22;9662;53.612;9.914;2022-12-29T14:41:24;8.80;99.90
19058;DHT22;9662;53.612;9.914;2022-12-29T14:44:10;8.80;99.90
19058;DHT22;9662;53.612;9.914;2022-12-29T14:46:47;8.80;99.90
19058;DHT22;9662;53.612;9.914;2022-12-29T14:49:17;8.70;99.90
19058;DHT22;9662;53.612;9.914;2022-12-29T14:51:45;8.60;99.90
19058;DHT22;9662;53.612;9.914;2022-12-29T14:54:46;8.50;99.90
19058;DHT22;9662;53.612;9.914;2022-12-29T14:57:21;8.40;99.90
19058;DHT22;9662;53.612;9.914;2022-12-29T14:59:54;8.40;99.90
19058;DHT22;9662;53.612;9.914;2022-12-29T15:02:25;8.40;99.90
19058;DHT22;9662;53.612;9.914;2022-12-29T15:04:54;8.30;99.90
19058;DHT22;9662;53.612;9.914;2022-12-29T15:07:26;8.30;99.90
19058;DHT22;9662;53.612;9.914;2022-12-29T15:09:58;8.20;99.90
19058;DHT22;9662;53.612;9.914;2022-12-29T15:12:33;8.20;99.90
19058;DHT22;9662;53.612;9.914;2022-12-29T15:15:17;8.20;99.90
19058;DHT22;9662;53.612;9.914;2022-12-29T15:17:44;8.20;99.90
19058;DHT22;9662;53.612;9.914;2022-12-29T15:20:21;8.40;99.90
19058;DHT22;9662;53.612;9.914;2022-12-29T15:22:51;8.50;99.90
19058;DHT22;9662;53.612;9.914;2022-12-29T15:25:19;8.60;99.90
19058;DHT22;9662;53.612;9.914;2022-12-29T15:27:51;8.70;99.90
19058;DHT22;9662;53.612;9.914;2022-12-29T15:30:20;8.60;99.90
19058;DHT22;9662;53.612;9.914;2022-12-29T15:32:49;8.70;99.90
19058;DHT22;9662;53.612;9.914;2022-12-29T15:46:10;8.60;99.90
19058;DHT22;9662;53.612;9.914;2022-12-29T15:52:16;8.60;99.90
19058;DHT22;9662;53.612;9.914;2022-12-29T15:55:31;8.80;99.90
19058;DHT22;9662;53.612;9.914;2022-12-29T15:58:25;8.80;99.90
19058;DHT22;9662;53.612;9.914;2022-12-29T16:11:01;8.20;99.90
19058;DHT22;9662;53.612;9.914;2022-12-29T16:13:34;8.10;99.90
19058;DHT22;9662;53.612;9.914;2022-12-29T16:16:17;8.10;99.90
19058;DHT22;9662;53.612;9.914;2022-12-29T16:18:51;8.00;99.90
19058;DHT22;9662;53.612;9.914;2022-12-29T16:21:24;8.00;99.90
19058;DHT22;9662;53.612;9.914;2022-12-29T16:24:00;7.90;99.90
19058;DHT22;9662;53.612;9.914;2022-12-29T16:26:38;7.80;99.90
19058;DHT22;9662;53.612;9.914;2022-12-29T16:29:06;7.80;99.90
19058;DHT22;9662;53.612;9.914;2022-12-29T16:31:36;7.80;99.90
19058;DHT22;9662;53.612;9.914;2022-12-29T16:34:12;7.80;99.90
19058;DHT22;9662;53.612;9.914;2022-12-29T16:36:51;7.70;99.90
19058;DHT22;9662;53.612;9.914;2022-12-29T16:39:28;7.70;99.90
19058;DHT22;9662;53.612;9.914;2022-12-29T16:41:58;7.70;99.90
19058;DHT22;9662;53.612;9.914;2022-12-29T16:44:27;7.70;99.90
19058;DHT22;9662;53.612;9.914;2022-12-29T16:47:16;7.70;99.90
19058;DHT22;9662;53.612;9.914;2022-12-29T16:49:49;7.60;99.90
19058;DHT22;9662;53.612;9.914;2022-12-29T16:52:22;7.60;99.90
19058;DHT22;9662;53.612;9.914;2022-12-29T16:54:52;7.60;99.90
19058;DHT22;9662;53.612;9.914;2022-12-29T16:57:27;7.50;99.90
19058;DHT22;9662;53.612;9.914;2022-12-29T16:59:57;7.50;99.90
19058;DHT22;9662;53.612;9.914;2022-12-29T17:02:27;7.60;99.90
19058;DHT22;9662;53.612;9.914;2022-12-29T17:04:54;7.60;99.90
19058;DHT22;9662;53.612;9.914;2022-12-29T17:07:23;7.60;99.90
19058;DHT22;9662;53.612;9.914;2022-12-29T17:09:50;7.90;99.90
19058;DHT22;9662;53.612;9.914;2022-12-29T17:12:21;7.70;99.90
19058;DHT22;9662;53.612;9.914;2022-12-29T17:14:52;7.70;99.90
19058;DHT22;9662;53.612;9.914;2022-12-29T17:17:24;7.80;99.90
19058;DHT22;9662;53.612;9.914;2022-12-29T17:19:55;7.80;99.90
19058;DHT22;9662;53.612;9.914;2022-12-29T17:22:26;7.90;99.90
19058;DHT22;9662;53.612;9.914;2022-12-29T17:24:53;7.80;99.90
19058;DHT22;9662;53.612;9.914;2022-12-29T17:27:24;7.90;99.90
19058;DHT22;9662;53.612;9.914;2022-12-29T17:29:55;8.00;99.90
19058;DHT22;9662;53.612;9.914;2022-12-29T17:32:22;8.10;99.90
19058;DHT22;9662;53.612;9.914;2022-12-29T17:34:49;8.20;99.90
19058;DHT22;9662;53.612;9.914;2022-12-29T17:37:31;8.30;99.90
19058;DHT22;9662;53.612;9.914;2022-12-29T17:40:06;8.40;99.90
19058;DHT22;9662;53.612;9.914;2022-12-29T17:42:47;8.50;99.90
19058;DHT22;9662;53.612;9.914;2022-12-29T17:45:31;8.60;99.90
19058;DHT22;9662;53.612;9.914;2022-12-29T17:48:16;8.70;99.90
19058;DHT22;9662;53.612;9.914;2022-12-29T18:35:57;8.80;99.90
19058;DHT22;9662;53.612;9.914;2022-12-29T18:45:39;8.80;99.90
19058;DHT22;9662;53.612;9.914;2022-12-29T20:56:09;8.10;99.90
19058;DHT22;9662;53.612;9.914;2022-12-29T20:58:38;7.80;99.90